Time;durP1;ratioP1;P1;durP2;ratioP2;P2;SDS_P1;SDS_P2;PMS_P1;PMS_P2;Temp;Humidity;BMP_temperature;BMP_pressure;BME280_temperature;BME280_humidity;BME280_pressure;Samples;Min_cycle;Max_cycle;Signal;HPM_P1;HPM_P2
2021/08/12 00:02:04;;;;;;;8.08;5.33;;;;;;;14.65;86.55;98572.77;1707139;84;20989;-73
2021/08/12 00:04:31;;;;;;;9.55;5.50;;;;;;;14.65;86.68;98576.85;1706665;82;21084;-78
2021/08/12 00:06:57;;;;;;;9.80;5.25;;;;;;;14.64;86.62;98581.23;1707014;83;20982;-74
2021/08/12 00:09:23;;;;;;;9.48;5.62;;;;;;;14.61;87.45;98582.64;1700727;83;21001;-79
2021/08/12 00:11:48;;;;;;;10.13;4.58;;;;;;;14.58;86.83;98586.49;1699314;84;20816;-78
2021/08/12 00:14:14;;;;;;;7.70;5.20;;;;;;;14.52;86.72;98589.83;1699053;84;20882;-79
2021/08/12 00:16:40;;;;;;;7.97;5.35;;;;;;;14.49;86.57;98593.14;1699311;82;22014;-73
2021/08/12 00:19:11;;;;;;;9.00;5.67;;;;;;;14.48;86.27;98593.44;1698850;84;20867;-80
2021/08/12 00:21:34;;;;;;;6.92;4.42;;;;;;;14.47;87.42;98592.63;1698602;84;21014;-74
2021/08/12 00:24:00;;;;;;;8.68;5.10;;;;;;;14.47;88.41;98590.45;1698967;83;20950;-79
2021/08/12 00:26:26;;;;;;;7.70;5.28;;;;;;;14.51;87.98;98596.94;1699325;83;20907;-74
2021/08/12 00:28:52;;;;;;;9.10;5.83;;;;;;;14.55;87.54;98600.17;1699043;84;21154;-73
2021/08/12 00:31:18;;;;;;;10.18;5.78;;;;;;;14.54;88.02;98597.19;1699139;84;20863;-74
2021/08/12 00:33:44;;;;;;;10.08;5.10;;;;;;;14.50;87.16;98592.03;1699060;84;20926;-73
2021/08/12 00:36:10;;;;;;;8.58;5.75;;;;;;;14.45;86.95;98592.64;1699212;84;20874;-74
2021/08/12 00:38:36;;;;;;;5.95;4.55;;;;;;;14.36;86.52;98601.45;1698980;84;20851;-79
2021/08/12 00:41:02;;;;;;;7.12;4.62;;;;;;;14.30;86.78;98598.52;1698986;84;21373;-79
2021/08/12 00:43:28;;;;;;;13.28;4.97;;;;;;;14.24;86.68;98602.94;1698970;84;21046;-73
2021/08/12 00:45:53;;;;;;;12.15;5.95;;;;;;;14.20;86.10;98594.55;1699010;84;20902;-74
2021/08/12 00:48:20;;;;;;;7.53;5.62;;;;;;;14.15;88.23;98604.13;1698958;83;20861;-73
2021/08/12 00:50:46;;;;;;;14.18;5.70;;;;;;;14.16;88.56;98599.48;1699020;82;21022;-79
2021/08/12 00:53:12;;;;;;;8.00;5.92;;;;;;;14.12;87.73;98601.98;1699208;84;21303;-73
2021/08/12 00:55:42;;;;;;;8.95;4.97;;;;;;;14.06;87.04;98598.49;1699164;84;20922;-79
2021/08/12 00:58:06;;;;;;;11.18;4.67;;;;;;;14.00;87.60;98604.27;1699083;83;20931;-73
2021/08/12 01:00:35;;;;;;;7.08;4.30;;;;;;;13.96;87.32;98612.22;1699265;83;20890;-79
2021/08/12 01:02:59;;;;;;;8.93;4.92;;;;;;;13.87;88.32;98612.59;1699082;83;21311;-73
2021/08/12 01:05:30;;;;;;;7.05;4.85;;;;;;;13.82;88.42;98608.53;1699226;84;21089;-79
2021/08/12 01:08:08;;;;;;;8.38;4.87;;;;;;;13.82;87.60;98612.06;1698749;84;21003;-79
2021/08/12 01:10:59;;;;;;;10.58;5.65;;;;;;;13.83;88.37;98615.05;1695859;84;21006;-80
2021/08/12 01:13:49;;;;;;;8.75;5.40;;;;;;;13.81;88.71;98614.53;1699381;84;21053;-74
2021/08/12 01:16:17;;;;;;;8.13;5.37;;;;;;;13.86;87.24;98612.33;1646133;87;20930;-79
2021/08/12 01:18:52;;;;;;;7.08;4.90;;;;;;;13.83;86.64;98612.88;1699236;84;21327;-73
2021/08/12 01:21:50;;;;;;;7.87;4.85;;;;;;;13.73;86.79;98615.14;1698569;84;20954;-74
2021/08/12 01:24:16;;;;;;;8.90;6.25;;;;;;;13.70;88.20;98610.83;1699201;84;21042;-78
2021/08/12 01:26:43;;;;;;;8.10;4.87;;;;;;;13.73;88.68;98612.97;1699350;83;20874;-79
2021/08/12 01:29:13;;;;;;;9.55;4.62;;;;;;;13.72;88.87;98612.16;1699132;84;20907;-73
2021/08/12 01:31:53;;;;;;;7.65;4.28;;;;;;;13.72;88.23;98610.80;1698861;84;21196;-74
2021/08/12 01:34:44;;;;;;;6.45;4.60;;;;;;;13.73;87.69;98609.70;1699006;84;21058;-79
2021/08/12 01:37:13;;;;;;;7.58;5.47;;;;;;;13.65;86.91;98609.50;1699371;84;21065;-74
2021/08/12 01:39:41;;;;;;;8.00;5.33;;;;;;;13.53;87.40;98612.60;1702726;83;21017;-74
2021/08/12 01:42:07;;;;;;;15.98;5.83;;;;;;;13.50;87.66;98607.19;1699408;84;20986;-74
2021/08/12 01:44:33;;;;;;;7.78;5.05;;;;;;;13.49;86.96;98609.62;1699049;84;22169;-74
2021/08/12 01:46:59;;;;;;;11.05;4.83;;;;;;;13.41;88.85;98608.86;1699262;84;20886;-74
2021/08/12 01:49:25;;;;;;;9.73;6.08;;;;;;;13.41;88.37;98608.05;1707502;83;20898;-80
2021/08/12 01:51:51;;;;;;;8.18;5.15;;;;;;;13.42;87.66;98608.34;1706997;82;21489;-74
2021/08/12 01:54:17;;;;;;;7.15;4.72;;;;;;;13.42;88.66;98610.52;1707006;83;20922;-79
2021/08/12 01:56:43;;;;;;;10.78;4.95;;;;;;;13.43;88.52;98608.60;1707107;84;21286;-79
2021/08/12 01:59:09;;;;;;;9.45;4.87;;;;;;;13.44;88.46;98612.39;1706880;82;20910;-74
2021/08/12 02:01:35;;;;;;;14.55;5.33;;;;;;;13.43;88.55;98608.60;1707214;82;20870;-79
2021/08/12 02:04:01;;;;;;;11.00;5.37;;;;;;;13.44;87.94;98611.03;1706930;84;20882;-74
2021/08/12 02:06:36;;;;;;;9.63;5.25;;;;;;;13.42;88.04;98615.15;1706957;84;20811;-74
2021/08/12 02:09:03;;;;;;;8.28;5.53;;;;;;;13.39;88.12;98608.89;1706887;84;21303;-73
2021/08/12 02:11:32;;;;;;;9.50;5.90;;;;;;;13.37;87.73;98615.17;1706732;84;21378;-79
2021/08/12 02:13:58;;;;;;;9.85;5.78;;;;;;;13.36;86.76;98610.83;1707031;84;20902;-73
2021/08/12 02:16:24;;;;;;;9.30;5.20;;;;;;;13.28;88.65;98608.70;1706814;84;20862;-79
2021/08/12 02:18:50;;;;;;;9.58;4.95;;;;;;;13.24;88.52;98610.64;1707007;83;20961;-79
2021/08/12 02:21:33;;;;;;;9.18;5.42;;;;;;;13.22;87.42;98612.81;1706885;82;21188;-79
2021/08/12 02:24:10;;;;;;;9.13;5.58;;;;;;;13.20;87.50;98612.84;1704916;84;21025;-74
2021/08/12 02:26:43;;;;;;;6.90;4.72;;;;;;;13.13;89.40;98619.11;1706863;83;20956;-73
2021/08/12 02:29:12;;;;;;;9.98;4.83;;;;;;;13.07;89.33;98614.23;1705591;83;20931;-73
2021/08/12 02:31:37;;;;;;;10.05;4.70;;;;;;;13.09;87.95;98616.14;1706955;83;20960;-79
2021/08/12 02:34:03;;;;;;;7.80;4.55;;;;;;;13.04;89.45;98612.08;1706850;82;21217;-74
2021/08/12 02:36:29;;;;;;;6.40;4.05;;;;;;;13.04;87.98;98616.71;1706889;82;20865;-74
2021/08/12 02:39:06;;;;;;;6.50;5.10;;;;;;;13.00;87.65;98617.84;1706938;84;21509;-73
2021/08/12 02:41:33;;;;;;;8.23;5.20;;;;;;;12.92;87.70;98621.95;1706790;84;21013;-73
2021/08/12 02:43:59;;;;;;;13.18;5.70;;;;;;;12.82;88.38;98619.29;1706933;84;21470;-74
2021/08/12 02:46:26;;;;;;;8.03;5.08;;;;;;;12.80;88.27;98622.00;1706883;84;21718;-78
2021/08/12 02:48:52;;;;;;;10.82;6.40;;;;;;;12.79;87.96;98623.91;1685892;84;20970;-73
2021/08/12 02:51:18;;;;;;;11.65;6.35;;;;;;;12.78;87.76;98630.44;1706509;83;20926;-73
2021/08/12 02:53:44;;;;;;;7.50;5.03;;;;;;;12.74;87.76;98625.86;1706854;84;21536;-79
2021/08/12 02:56:12;;;;;;;8.03;4.87;;;;;;;12.70;87.70;98636.46;1706809;84;20878;-79
2021/08/12 02:58:41;;;;;;;8.98;4.50;;;;;;;12.70;87.14;98631.83;1706992;83;21387;-73
2021/08/12 03:01:07;;;;;;;8.18;4.70;;;;;;;12.61;89.10;98636.77;1706842;84;21018;-73
2021/08/12 03:03:35;;;;;;;9.40;5.05;;;;;;;12.61;88.65;98630.78;1706978;83;20950;-74
2021/08/12 03:06:01;;;;;;;8.95;5.35;;;;;;;12.63;89.78;98629.95;1706820;84;21005;-74
2021/08/12 03:08:27;;;;;;;8.25;4.83;;;;;;;12.67;88.78;98628.32;1706906;84;21568;-73
2021/08/12 03:10:54;;;;;;;8.50;5.08;;;;;;;12.65;89.98;98625.62;1720187;83;21190;-73
2021/08/12 03:13:20;;;;;;;8.00;5.00;;;;;;;12.73;89.68;98628.28;1720105;83;20910;-73
2021/08/12 03:15:45;;;;;;;6.90;4.87;;;;;;;12.76;89.87;98619.59;1720206;83;20917;-73
2021/08/12 03:18:11;;;;;;;9.33;5.50;;;;;;;12.76;89.72;98625.03;1711054;83;20965;-79
2021/08/12 03:20:40;;;;;;;10.85;6.72;;;;;;;12.77;89.58;98628.82;1686788;84;20922;-79
2021/08/12 03:23:06;;;;;;;7.62;5.30;;;;;;;12.81;89.23;98630.42;1707108;84;21074;-73
2021/08/12 03:25:32;;;;;;;9.85;6.30;;;;;;;12.76;89.05;98631.28;1686788;84;21571;-73
2021/08/12 03:27:59;;;;;;;10.23;6.12;;;;;;;12.71;89.33;98630.73;1693189;83;20969;-74
2021/08/12 03:30:25;;;;;;;7.42;5.50;;;;;;;12.68;88.80;98627.77;1708871;83;20947;-79
2021/08/12 03:32:51;;;;;;;6.30;4.47;;;;;;;12.62;89.00;98629.69;1707082;82;21442;-74
2021/08/12 03:35:18;;;;;;;8.85;6.10;;;;;;;12.61;88.71;98632.14;1707040;84;21255;-74
2021/08/12 03:37:43;;;;;;;11.22;6.47;;;;;;;12.64;89.39;98628.05;1706817;84;21018;-73
2021/08/12 03:40:10;;;;;;;11.15;5.87;;;;;;;12.68;89.32;98623.15;1707107;82;20941;-73
2021/08/12 03:42:36;;;;;;;8.00;5.17;;;;;;;12.67;89.59;98631.59;1706943;84;21363;-73
2021/08/12 03:45:03;;;;;;;8.03;4.97;;;;;;;12.70;88.93;98644.06;1707077;83;20890;-74
2021/08/12 03:47:28;;;;;;;11.10;5.58;;;;;;;12.63;88.69;98641.38;1706994;83;21720;-74
2021/08/12 03:49:54;;;;;;;8.63;4.72;;;;;;;12.62;88.47;98644.64;1713482;83;20937;-78
2021/08/12 03:52:21;;;;;;;9.28;5.22;;;;;;;12.55;88.57;98650.91;1707236;83;20889;-79
2021/08/12 03:54:47;;;;;;;6.55;5.42;;;;;;;12.56;88.06;98651.21;1706711;82;20931;-79
2021/08/12 03:57:13;;;;;;;9.18;5.08;;;;;;;12.50;88.03;98652.31;1707144;84;20969;-79
2021/08/12 03:59:38;;;;;;;9.98;5.55;;;;;;;12.44;88.08;98653.41;1707093;83;21153;-73
2021/08/12 04:02:05;;;;;;;11.20;6.42;;;;;;;12.46;87.90;98653.13;1706690;83;20946;-73
2021/08/12 04:04:31;;;;;;;11.53;5.45;;;;;;;12.48;88.16;98654.50;1706707;84;21040;-79
2021/08/12 04:06:57;;;;;;;8.88;5.33;;;;;;;12.48;88.80;98653.14;1706783;82;20890;-74
2021/08/12 04:09:23;;;;;;;7.53;5.58;;;;;;;12.48;88.80;98654.50;1706872;83;20965;-79
2021/08/12 04:11:49;;;;;;;11.75;5.12;;;;;;;12.53;89.07;98657.73;1706870;83;21303;-73
2021/08/12 04:14:15;;;;;;;10.15;5.22;;;;;;;12.55;88.83;98658.26;1706718;83;20953;-73
2021/08/12 04:16:40;;;;;;;8.13;5.45;;;;;;;12.61;89.40;98656.61;1706903;83;21607;-73
2021/08/12 04:19:06;;;;;;;11.20;5.85;;;;;;;12.69;88.10;98664.20;1706817;84;21301;-79
2021/08/12 04:21:32;;;;;;;7.05;5.12;;;;;;;12.79;88.56;98661.98;1706927;83;20942;-74
2021/08/12 04:23:58;;;;;;;7.83;6.28;;;;;;;12.94;88.87;98668.72;1706796;84;21353;-79
2021/08/12 04:26:27;;;;;;;8.70;5.42;;;;;;;13.07;88.83;98667.28;1706848;84;20926;-74
2021/08/12 04:28:52;;;;;;;8.25;5.42;;;;;;;13.10;88.07;98661.30;1706701;82;20962;-73
2021/08/12 04:31:18;;;;;;;10.30;6.28;;;;;;;13.21;87.57;98668.88;1706822;83;21469;-80
2021/08/12 04:33:44;;;;;;;10.43;5.80;;;;;;;13.23;87.63;98666.14;1706879;83;20957;-74
2021/08/12 04:36:10;;;;;;;7.47;5.08;;;;;;;13.35;87.42;98664.45;1706969;83;21257;-73
2021/08/12 04:38:36;;;;;;;12.90;5.62;;;;;;;13.50;86.96;98673.05;1706788;83;21332;-73
2021/08/12 04:41:02;;;;;;;8.23;4.90;;;;;;;13.61;86.35;98671.90;1706794;84;20978;-74
2021/08/12 04:43:30;;;;;;;9.65;6.22;;;;;;;13.75;86.28;98673.41;1706871;83;20978;-74
2021/08/12 04:45:56;;;;;;;7.75;4.60;;;;;;;13.83;86.08;98674.98;1706973;83;20926;-78
2021/08/12 04:48:22;;;;;;;8.33;5.03;;;;;;;13.97;86.01;98677.06;1706811;83;21217;-74
2021/08/12 04:50:49;;;;;;;6.90;4.97;;;;;;;14.04;85.81;98667.46;1706729;84;21564;-74
2021/08/12 04:53:15;;;;;;;7.47;5.45;;;;;;;14.20;85.59;98674.95;1700003;82;20946;-79
2021/08/12 04:55:40;;;;;;;7.53;5.50;;;;;;;14.28;85.24;98678.97;1699226;84;20890;-79
2021/08/12 04:58:06;;;;;;;6.55;5.15;;;;;;;14.39;84.90;98685.38;1699163;84;21029;-74
2021/08/12 05:00:33;;;;;;;10.13;5.80;;;;;;;14.39;84.91;98683.20;1699202;82;20998;-74
2021/08/12 05:03:00;;;;;;;10.05;5.95;;;;;;;14.44;84.72;98684.53;1679034;84;21348;-74
2021/08/12 05:05:25;;;;;;;10.72;6.35;;;;;;;14.50;84.58;98686.11;1699163;83;21029;-74
2021/08/12 05:07:51;;;;;;;12.40;6.83;;;;;;;14.60;84.08;98683.82;1699176;84;20985;-74
2021/08/12 05:10:17;;;;;;;12.70;5.53;;;;;;;14.66;84.39;98685.39;1699208;83;20823;-73
2021/08/12 05:12:43;;;;;;;10.85;6.17;;;;;;;14.80;84.57;98685.52;1699267;84;21002;-79
2021/08/12 05:15:10;;;;;;;8.23;5.35;;;;;;;14.87;84.17;98688.72;1699179;83;20906;-79
2021/08/12 05:17:36;;;;;;;9.83;6.95;;;;;;;14.87;84.02;98684.08;1698966;83;21347;-74
2021/08/12 05:20:03;;;;;;;12.98;6.65;;;;;;;15.01;84.10;98686.08;1699174;84;20820;-74
2021/08/12 05:22:29;;;;;;;14.20;7.42;;;;;;;15.14;83.61;98685.38;1698904;84;21108;-74
2021/08/12 05:24:55;;;;;;;8.53;5.85;;;;;;;15.26;83.33;98692.56;1699244;83;21297;-74
2021/08/12 05:27:20;;;;;;;14.28;6.80;;;;;;;15.34;82.60;98690.55;1698841;84;20921;-79
2021/08/12 05:29:46;;;;;;;8.20;5.97;;;;;;;15.36;82.65;98697.07;1699281;83;20871;-79
2021/08/12 05:32:12;;;;;;;12.35;5.78;;;;;;;15.53;81.95;98697.37;1699046;84;20855;-74
2021/08/12 05:34:38;;;;;;;17.12;7.10;;;;;;;15.63;81.08;98696.44;1699224;84;21560;-79
2021/08/12 05:37:04;;;;;;;15.68;5.70;;;;;;;15.61;80.85;98695.38;1699000;82;21308;-76
2021/08/12 05:39:30;;;;;;;10.82;6.72;;;;;;;15.63;80.68;98688.23;1699071;84;21441;-79
2021/08/12 05:41:56;;;;;;;12.55;7.87;;;;;;;15.63;80.45;98691.78;1699128;83;20937;-80
2021/08/12 05:44:22;;;;;;;9.90;6.75;;;;;;;15.66;80.61;98683.57;1699156;82;20840;-79
2021/08/12 05:46:49;;;;;;;11.53;6.10;;;;;;;15.75;80.25;98684.52;1699183;83;21493;-74
2021/08/12 05:49:15;;;;;;;9.98;6.05;;;;;;;15.84;80.50;98683.28;1698932;83;21230;-80
2021/08/12 05:51:41;;;;;;;13.08;6.37;;;;;;;15.94;80.16;98689.39;1699186;84;20930;-74
2021/08/12 05:54:07;;;;;;;10.63;6.25;;;;;;;16.08;79.57;98686.16;1699162;83;20969;-74
2021/08/12 05:56:35;;;;;;;9.23;6.65;;;;;;;16.12;79.55;98681.45;1699324;84;20955;-74
2021/08/12 05:59:01;;;;;;;11.08;6.87;;;;;;;16.32;79.21;98687.39;1699009;83;21002;-79
2021/08/12 06:01:28;;;;;;;11.68;6.78;;;;;;;16.47;79.09;98695.04;1699116;84;21335;-78
2021/08/12 06:03:54;;;;;;;7.50;5.60;;;;;;;16.60;77.81;98691.52;1698984;83;20966;-74
2021/08/12 06:06:19;;;;;;;12.30;5.28;;;;;;;16.62;77.80;98687.36;1699174;84;20941;-74
2021/08/12 06:08:45;;;;;;;9.30;6.53;;;;;;;16.76;77.83;98690.70;1699145;84;20843;-74
2021/08/12 06:11:11;;;;;;;9.93;5.95;;;;;;;16.89;78.38;98688.52;1699304;84;21439;-75
2021/08/12 06:13:37;;;;;;;6.60;5.00;;;;;;;17.14;78.59;98687.98;1699161;82;21110;-79
2021/08/12 06:16:06;;;;;;;9.03;7.10;;;;;;;17.36;77.58;98687.81;1699102;84;20850;-74
2021/08/12 06:18:32;;;;;;;7.67;6.00;;;;;;;17.46;77.86;98692.50;1699154;84;20942;-74
2021/08/12 06:20:58;;;;;;;10.23;6.42;;;;;;;17.66;76.62;98700.80;1699114;83;20913;-78
2021/08/12 06:23:24;;;;;;;8.35;5.20;;;;;;;17.80;76.54;98693.94;1699202;82;20926;-74
2021/08/12 06:25:50;;;;;;;7.42;5.30;;;;;;;18.00;75.03;98688.52;1699229;84;21898;-74
2021/08/12 06:28:16;;;;;;;9.08;5.28;;;;;;;18.09;75.21;98688.58;1699476;84;20878;-74
2021/08/12 06:30:42;;;;;;;8.20;4.50;;;;;;;18.41;75.72;98686.92;1699064;84;20891;-74
2021/08/12 06:33:08;;;;;;;14.28;10.70;;;;;;;18.57;72.49;98691.44;1699190;83;20891;-79
2021/08/12 06:35:35;;;;;;;16.05;12.10;;;;;;;18.42;72.74;98694.02;1699400;84;20862;-79
2021/08/12 06:38:01;;;;;;;9.08;7.35;;;;;;;18.47;72.20;98695.84;1698878;83;22176;-79
2021/08/12 06:40:27;;;;;;;8.10;6.53;;;;;;;18.51;71.63;98698.99;1699086;84;20911;-79
2021/08/12 06:42:53;;;;;;;12.68;6.45;;;;;;;18.64;71.05;98697.86;1698976;84;20948;-79
2021/08/12 06:45:20;;;;;;;10.43;6.35;;;;;;;18.82;70.96;98694.89;1699333;84;20923;-74
2021/08/12 06:47:47;;;;;;;12.15;7.08;;;;;;;18.95;70.31;98697.27;1698991;84;21316;-74
2021/08/12 06:50:15;;;;;;;8.70;5.92;;;;;;;19.06;69.79;98693.69;1699046;83;21055;-74
2021/08/12 06:52:40;;;;;;;8.03;5.05;;;;;;;19.16;69.95;98687.33;1698971;84;20990;-79
2021/08/12 06:55:07;;;;;;;14.85;5.60;;;;;;;19.66;70.45;98687.50;1699681;84;20843;-74
2021/08/12 06:57:33;;;;;;;8.18;5.37;;;;;;;20.18;68.93;98683.34;1699065;84;21086;-79
2021/08/12 06:59:59;;;;;;;8.73;4.72;;;;;;;20.64;69.56;98681.20;1699292;84;20926;-74
2021/08/12 07:02:25;;;;;;;23.15;12.55;;;;;;;20.84;67.25;98683.78;1704119;83;21001;-81
2021/08/12 07:04:51;;;;;;;22.00;11.78;;;;;;;20.87;67.69;98681.76;1718069;82;20879;-80
2021/08/12 07:07:17;;;;;;;8.78;6.53;;;;;;;21.01;66.09;98686.45;1726671;83;22297;-80
2021/08/12 07:09:43;;;;;;;8.03;6.10;;;;;;;20.99;64.47;98686.55;1728189;83;20829;-79
2021/08/12 07:12:09;;;;;;;8.70;5.87;;;;;;;21.04;64.61;98685.80;1728251;82;20930;-75
2021/08/12 07:14:35;;;;;;;13.98;6.17;;;;;;;21.09;64.43;98682.03;1728398;82;21129;-80
2021/08/12 07:17:01;;;;;;;6.87;5.28;;;;;;;21.57;63.43;98684.35;1728132;83;20991;-80
2021/08/12 07:19:27;;;;;;;9.08;5.20;;;;;;;22.17;62.44;98677.53;1728031;83;21337;-80
2021/08/12 07:21:54;;;;;;;5.85;4.85;;;;;;;22.63;57.33;98682.45;1728239;82;20947;-80
2021/08/12 07:24:20;;;;;;;7.80;4.95;;;;;;;22.98;53.72;98689.76;1728250;83;20903;-75
2021/08/12 07:26:50;;;;;;;9.23;5.50;;;;;;;23.64;58.02;98688.11;1728183;83;21326;-75
2021/08/12 07:29:14;;;;;;;9.05;5.85;;;;;;;24.17;54.73;98682.48;1727281;82;21340;-81
2021/08/12 07:31:41;;;;;;;12.75;5.40;;;;;;;24.69;50.98;98684.28;1728386;82;21054;-81
2021/08/12 07:34:23;;;;;;;8.10;5.25;;;;;;;25.12;51.97;98682.02;1728073;82;21313;-76
2021/08/12 07:36:49;;;;;;;6.10;4.95;;;;;;;25.34;51.37;98686.11;1728275;83;21379;-78
2021/08/12 07:39:19;;;;;;;11.05;5.70;;;;;;;25.67;46.69;98690.41;1727562;83;22067;-76
2021/08/12 07:41:43;;;;;;;8.73;4.53;;;;;;;25.80;47.00;98682.98;1726437;82;21419;-77
2021/08/12 07:44:09;;;;;;;6.60;4.60;;;;;;;26.33;48.61;98686.04;1727301;83;20967;-77
2021/08/12 07:46:35;;;;;;;11.38;4.72;;;;;;;26.23;43.55;98686.62;1726552;83;20935;-82
2021/08/12 07:49:01;;;;;;;10.93;4.00;;;;;;;26.76;45.52;98681.28;1726378;83;21675;-77
2021/08/12 07:51:28;;;;;;;7.85;4.45;;;;;;;27.33;45.31;98684.19;1735627;82;21137;-77
2021/08/12 07:53:54;;;;;;;7.67;4.00;;;;;;;27.40;44.35;98682.31;1735309;82;21340;-76
2021/08/12 07:56:20;;;;;;;9.70;3.83;;;;;;;27.99;43.23;98686.91;1735637;82;21057;-82
2021/08/12 07:58:46;;;;;;;4.20;3.50;;;;;;;28.05;42.11;98683.41;1735278;82;20859;-76
2021/08/12 08:01:15;;;;;;;5.25;3.52;;;;;;;27.76;36.64;98690.59;1735808;82;20993;-76
2021/08/12 08:03:40;;;;;;;;;;;;;;;28.41;40.49;98687.21;1738268;82;21993;-82
2021/08/12 08:06:06;;;;;;;;;;;;;;;27.79;33.53;98693.23;1738401;81;20722;-82
2021/08/12 08:08:32;;;;;;;;;;;;;;;28.26;34.07;98693.98;1737997;82;20205;-82
2021/08/12 08:10:58;;;;;;;;;;;;;;;28.34;33.22;98694.90;1738378;81;20146;-76
2021/08/12 08:13:23;;;;;;;;;;;;;;;28.44;32.81;98699.78;1738792;81;20174;-76
2021/08/12 08:15:49;;;;;;;;;;;;;;;28.20;31.66;98700.27;1738822;81;21220;-82
2021/08/12 08:18:15;;;;;;;;;;;;;;;28.16;31.92;98708.59;1738725;81;20154;-77
2021/08/12 08:20:41;;;;;;;;;;;;;;;27.81;32.64;98708.95;1738952;81;20206;-77
2021/08/12 08:23:08;;;;;;;;;;;;;;;28.03;33.01;98713.63;1738729;81;20138;-82
2021/08/12 08:25:34;;;;;;;;;;;;;;;28.82;33.89;98712.52;1739011;82;20087;-77
2021/08/12 08:28:00;;;;;;;;;;;;;;;28.74;30.45;98719.80;1738841;81;21027;-77
2021/08/12 08:30:27;;;;;;;;;;;;;;;29.51;30.98;98717.50;1738897;81;20136;-81
2021/08/12 08:32:52;;;;;;;;;;;;;;;29.32;30.60;98712.95;1738682;82;20160;-81
2021/08/12 08:35:18;;;;;;;;;;;;;;;29.28;30.83;98719.09;1739066;82;20195;-77
2021/08/12 08:37:44;;;;;;;;;;;;;;;29.28;31.37;98723.88;1738911;81;20170;-78
2021/08/12 08:40:10;;;;;;;;;;;;;;;29.01;31.97;98719.08;1739007;81;21086;-81
2021/08/12 08:42:36;;;;;;;;;;;;;;;29.26;30.63;98720.08;1738805;81;20155;-77
2021/08/12 08:45:02;;;;;;;;;;;;;;;28.93;29.84;98714.83;1738967;82;20745;-77
2021/08/12 08:47:28;;;;;;;;;;;;;;;29.73;30.02;98712.23;1739079;82;20501;-77
2021/08/12 08:49:54;;;;;;;;;;;;;;;30.14;29.07;98712.65;1737745;81;20214;-77
2021/08/12 08:52:20;;;;;;;;;;;;;;;28.79;30.96;98704.09;1730697;82;20938;-77
2021/08/12 08:54:46;;;;;;;;;;;;;;;29.87;30.63;98710.11;1730956;82;20170;-82
2021/08/12 08:57:12;;;;;;;;;;;;;;;30.39;29.91;98706.55;1730791;83;20238;-82
2021/08/12 08:59:37;;;;;;;;;;;;;;;30.32;29.23;98708.72;1730951;82;20134;-77
2021/08/12 09:02:04;;;;;;;;;;;;;;;30.03;30.00;98706.40;1730553;82;20745;-82
2021/08/12 09:04:33;;;;;;;;;;;;;;;30.89;29.09;98706.66;1730669;83;21070;-77
2021/08/12 09:07:01;;;;;;;;;;;;;;;32.33;28.88;98706.63;1730375;82;20415;-81
2021/08/12 09:09:27;;;;;;;;;;;;;;;31.79;26.44;98713.00;1730735;82;20140;-77
2021/08/12 09:11:52;;;;;;;;;;;;;;;32.02;25.90;98712.53;1730859;82;20182;-77
2021/08/12 09:14:29;;;;;;;;;;;;;;;33.33;27.30;98714.54;1730737;82;20171;-78
2021/08/12 09:16:54;;;;;;;;;;;;;;;31.52;27.29;98712.03;1730966;82;21075;-78
2021/08/12 09:19:21;;;;;;;;;;;;;;;32.73;26.38;98719.18;1730699;82;20310;-82
2021/08/12 09:21:59;;;;;;;;;;;;;;;33.11;25.50;98718.73;1730883;82;20321;-78
2021/08/12 09:24:25;;;;;;;;;;;;;;;32.82;25.19;98723.15;1730821;82;20136;-78
2021/08/12 09:26:50;;;;;;;;;;;;;;;33.23;23.75;98728.05;1730933;83;20218;-82
2021/08/12 09:29:27;;;;;;;;;;;;;;;33.49;24.67;98727.23;1730721;82;21806;-78
2021/08/12 09:32:00;;;;;;;;;;;;;;;33.47;24.47;98731.08;1730845;83;20409;-81
2021/08/12 09:34:40;;;;;;;;;;;;;;;34.08;24.85;98722.80;1729924;82;20153;-81
2021/08/12 09:37:06;;;;;;;;;;;;;;;34.90;22.51;98723.14;1730153;83;20145;-82
2021/08/12 09:39:32;;;;;;;;;;;;;;;33.23;24.29;98721.02;1731087;82;20241;-82
2021/08/12 09:41:58;;;;;;;;;;;;;;;34.01;25.12;98722.89;1730990;83;21163;-79
2021/08/12 09:44:41;;;;;;;;;;;;;;;33.65;25.14;98730.29;1730702;82;20163;-78
2021/08/12 09:47:13;;;;;;;;;;;;;;;34.67;23.91;98726.05;1730877;83;20405;-78
2021/08/12 09:49:45;;;;;;;;;;;;;;;35.15;22.24;98717.10;1730673;82;20475;-82
2021/08/12 09:52:27;;;;;;;;;;;;;;;34.71;22.23;98724.61;1733440;82;20210;-82
2021/08/12 09:54:58;;;;;;;;;;;;;;;33.81;22.30;98722.70;1733862;82;21147;-82
2021/08/12 09:57:25;;;;;;;;;;;;;;;34.60;22.84;98719.73;1738207;82;20160;-77
2021/08/12 09:59:52;;;;;;;;;;;;;;;34.02;23.25;98721.09;1739105;82;20202;-78
2021/08/12 10:02:18;;;;;;;;;;;;;;;33.39;22.95;98723.32;1738920;81;20439;-77
2021/08/12 10:04:44;;;;;;;;;;;;;;;34.27;22.33;98724.98;1739116;81;20144;-81
2021/08/12 10:07:36;;;;;;;;;;;;;;;34.95;21.30;98721.23;1738956;82;21800;-81
2021/08/12 10:10:11;;;;;;;;;;;;;;;34.85;22.56;98723.58;1738991;82;20168;-77
2021/08/12 10:12:42;;;;;;;;;;;;;;;35.49;20.24;98712.71;1739014;81;20136;-78
2021/08/12 10:15:05;;;;;;;;;;;;;;;35.03;20.73;98718.48;1738678;82;20136;-81
2021/08/12 10:17:31;;;;;;;;;;;;;;;32.42;23.77;98721.79;1739104;81;20128;-77
2021/08/12 10:19:56;;;;;;;;;;;;;;;30.88;25.49;98716.25;1738923;81;21157;-81
2021/08/12 10:22:22;;;;;;;;;;;;;;;28.50;29.74;98722.55;1738944;81;20699;-81
2021/08/12 10:24:48;;;;;;;;;;;;;;;27.63;32.37;98725.98;1739074;82;20218;-80
2021/08/12 10:27:14;;;;;;;;;;;;;;;26.51;33.98;98728.08;1739054;81;20487;-77
2021/08/12 10:29:40;;;;;;;;;;;;;;;26.31;34.19;98729.22;1739148;81;20253;-80
2021/08/12 10:32:06;;;;;;;;;;;;;;;26.23;35.29;98728.28;1739043;81;21268;-77
2021/08/12 10:34:32;;;;;;;;;;;;;;;29.36;29.58;98723.54;1738826;81;20241;-77
2021/08/12 10:36:58;;;;;;;;;;;;;;;31.41;27.29;98720.46;1739040;81;20671;-81
2021/08/12 10:39:23;;;;;;;;;;;;;;;30.12;27.00;98722.03;1738892;81;20580;-76
2021/08/12 10:41:49;;;;;;;;;;;;;;;28.78;29.39;98721.42;1739117;81;20229;-81
2021/08/12 10:44:18;;;;;;;;;;;;;;;28.43;30.61;98717.69;1738896;81;21045;-77
2021/08/12 10:46:43;;;;;;;;;;;;;;;29.94;28.96;98720.53;1739005;82;20144;-78
2021/08/12 10:49:24;;;;;;;;;;;;;;;29.85;29.21;98718.09;1738831;81;20193;-81
2021/08/12 10:52:09;;;;;;;;;;;;;;;30.30;29.83;98720.09;1727127;82;20471;-78
2021/08/12 10:54:38;;;;;;;;;;;;;;;29.85;29.92;98721.48;1752547;82;20079;-76
2021/08/12 10:57:20;;;;;;;;;;;;;;;29.39;30.58;98717.17;1745785;82;20124;-77
2021/08/12 10:59:49;;;;;;;;;;;;;;;29.19;31.21;98715.84;1738819;82;20186;-77
2021/08/12 11:02:30;;;;;;;;;;;;;;;29.12;30.20;98712.39;1738255;82;20769;-77
2021/08/12 11:04:59;;;;;;;;;;;;;;;28.40;31.64;98711.49;1738784;81;20132;-77
2021/08/12 11:07:40;;;;;;;;;;;;;;;27.86;33.33;98712.81;1738550;82;20116;-81
2021/08/12 11:10:10;;;;;;;;;;;;;;;27.46;34.16;98714.80;1739041;81;20087;-77
2021/08/12 11:12:57;;;;;;;;;;;;;;;27.56;34.26;98716.93;1738455;82;20136;-80
2021/08/12 11:15:42;;;;;;;;;;;;;;;26.48;34.75;98714.91;1739313;82;20128;-77
2021/08/12 11:18:11;;;;;;;;;;;;;;;26.28;34.57;98718.86;1738917;82;20156;-81
2021/08/12 11:20:42;;;;;;;;;;;;;;;26.05;35.11;98715.42;1739060;81;20418;-76
2021/08/12 11:23:25;;;;;;;;;;;;;;;26.02;35.64;98714.78;1738888;82;21135;-77
2021/08/12 11:26:04;;;;;;;;;;;;;;;25.76;34.47;98711.25;1739405;81;20179;-76
2021/08/12 11:28:43;;;;;;;;;;;;;;;25.67;35.40;98713.41;1735129;82;20155;-80
2021/08/12 11:31:23;;;;;;;;;;;;;;;25.60;35.29;98709.08;1739130;82;20124;-80
2021/08/12 11:33:59;;;;;;;;;;;;;;;25.27;35.18;98724.77;1714496;82;20143;-76
2021/08/12 11:36:25;;;;;;;;;;;;;;;25.44;35.55;98722.19;1729871;82;21061;-81
2021/08/12 11:38:57;;;;;;;;;;;;;;;25.26;35.50;98725.34;1701785;83;20289;-79
2021/08/12 11:41:23;;;;;;;;;;;;;;;25.35;35.22;98714.64;1713258;82;20150;-77
2021/08/12 11:43:49;;;;;;;;;;;;;;;25.55;35.06;98719.06;1733275;82;20129;-75
2021/08/12 11:46:15;;;;;;;;;;;;;;;25.63;35.48;98713.89;1714080;82;20176;-75
2021/08/12 11:48:42;;;;;;;;;;;;;;;25.45;35.54;98719.05;1715803;82;21048;-75
2021/08/12 11:51:08;;;;;;;;;;;;;;;25.53;35.92;98718.05;1706165;83;20127;-76
2021/08/12 11:53:40;;;;;;;;;;;;;;;25.58;36.54;98716.39;1719053;82;20184;-81
2021/08/12 11:56:12;;;;;;;;;;;;;;;25.58;36.82;98714.20;1726593;82;20314;-82
2021/08/12 11:58:38;;;;;;;;;;;;;;;25.79;36.05;98707.74;1700771;83;20149;-82